createdAt,value
2022-08-18T00:01:58.842Z,99.90
2022-08-18T00:04:35.488Z,99.90
2022-08-18T00:07:03.288Z,99.80
2022-08-18T00:09:32.686Z,99.90
2022-08-18T00:12:04.112Z,99.80
2022-08-18T00:14:31.085Z,99.70
2022-08-18T00:16:57.911Z,99.60
2022-08-18T00:19:46.964Z,99.40
2022-08-18T00:22:15.878Z,99.80
2022-08-18T00:24:47.530Z,99.90
2022-08-18T00:27:21.636Z,99.90
2022-08-18T00:29:49.393Z,99.90
2022-08-18T00:32:19.350Z,99.90
2022-08-18T00:34:46.046Z,99.90
2022-08-18T00:37:12.728Z,99.90
2022-08-18T00:39:45.976Z,99.90
2022-08-18T00:42:29.072Z,99.90
2022-08-18T00:45:01.862Z,99.90
2022-08-18T00:47:33.123Z,99.90
2022-08-18T00:50:15.756Z,99.90
2022-08-18T00:52:47.750Z,99.90
2022-08-18T00:55:15.287Z,99.90
2022-08-18T00:57:43.109Z,99.90
2022-08-18T01:00:12.911Z,99.90
2022-08-18T01:02:47.695Z,99.90
2022-08-18T01:05:33.806Z,99.90
2022-08-18T01:08:01.035Z,99.90
2022-08-18T01:10:27.769Z,99.90
2022-08-18T01:12:56.800Z,99.90
2022-08-18T01:15:28.874Z,99.90
2022-08-18T01:18:17.640Z,99.90
2022-08-18T01:21:28.608Z,99.90
2022-08-18T01:23:57.185Z,99.90
2022-08-18T01:26:26.664Z,99.90
2022-08-18T01:28:53.988Z,99.90
2022-08-18T01:31:39.198Z,99.90
2022-08-18T01:34:07.698Z,99.90
2022-08-18T01:36:37.452Z,99.90
2022-08-18T01:39:07.099Z,99.90
2022-08-18T01:41:33.934Z,99.90
2022-08-18T01:44:02.071Z,99.90
2022-08-18T01:46:31.674Z,99.90
2022-08-18T01:49:00.593Z,99.90
2022-08-18T01:51:40.180Z,99.90
2022-08-18T01:54:10.234Z,99.90
2022-08-18T01:56:37.025Z,99.90
2022-08-18T01:59:04.744Z,99.90
2022-08-18T02:01:34.823Z,99.90
2022-08-18T02:04:33.150Z,99.90
2022-08-18T02:06:54.311Z,99.90
2022-08-18T02:09:23.732Z,99.90
2022-08-18T02:11:52.984Z,99.90
2022-08-18T02:14:25.039Z,99.90
2022-08-18T02:17:01.334Z,99.90
2022-08-18T02:19:38.207Z,99.90
2022-08-18T02:22:06.319Z,99.90
2022-08-18T02:24:33.003Z,99.90
2022-08-18T02:27:00.077Z,99.90
2022-08-18T02:29:26.935Z,99.90
2022-08-18T02:31:53.662Z,99.90
2022-08-18T02:34:20.419Z,99.90
2022-08-18T02:36:47.138Z,99.90
2022-08-18T02:39:13.798Z,99.90
2022-08-18T02:41:40.482Z,99.90
2022-08-18T02:44:09.029Z,99.90
2022-08-18T02:46:37.088Z,99.90
2022-08-18T02:49:05.461Z,99.90
2022-08-18T02:51:32.119Z,99.90
2022-08-18T02:54:01.727Z,99.90
2022-08-18T02:56:41.639Z,99.90
2022-08-18T02:59:19.754Z,99.90
2022-08-18T03:01:51.364Z,99.90
2022-08-18T03:04:28.108Z,99.90
2022-08-18T03:06:58.311Z,99.90
2022-08-18T03:09:24.980Z,99.90
2022-08-18T03:11:52.756Z,99.90
2022-08-18T03:14:19.534Z,99.90
2022-08-18T03:16:53.883Z,99.90
2022-08-18T03:19:23.875Z,99.90
2022-08-18T03:21:50.821Z,99.90
2022-08-18T03:24:22.320Z,99.90
2022-08-18T03:26:51.110Z,99.90
2022-08-18T03:29:17.901Z,99.90
2022-08-18T03:31:45.378Z,99.90
2022-08-18T03:34:12.935Z,99.90
2022-08-18T03:36:39.764Z,99.90
2022-08-18T03:39:09.301Z,99.90
2022-08-18T03:41:57.208Z,99.90
2022-08-18T03:44:27.969Z,99.90
2022-08-18T03:46:54.750Z,99.90
2022-08-18T03:49:21.465Z,99.90
2022-08-18T03:51:48.933Z,99.90
2022-08-18T03:54:17.950Z,99.90
2022-08-18T03:56:47.499Z,99.90
2022-08-18T03:59:17.948Z,99.90
2022-08-18T04:01:45.745Z,99.90
2022-08-18T04:04:15.695Z,99.90
2022-08-18T04:06:50.766Z,99.90
2022-08-18T04:09:19.034Z,99.90
2022-08-18T04:11:46.576Z,99.90
2022-08-18T04:14:15.286Z,99.90
2022-08-18T04:16:42.549Z,99.90
2022-08-18T04:19:13.305Z,99.90
2022-08-18T04:21:42.145Z,99.90
2022-08-18T04:24:10.733Z,99.90
2022-08-18T04:26:44.992Z,99.90
2022-08-18T04:29:13.604Z,99.90
2022-08-18T04:31:40.837Z,99.90
2022-08-18T04:34:07.529Z,99.90
2022-08-18T04:36:36.060Z,99.90
2022-08-18T04:39:05.394Z,99.90
2022-08-18T04:41:32.083Z,99.90
2022-08-18T04:44:01.299Z,99.90
2022-08-18T04:46:29.299Z,99.90
2022-08-18T04:49:01.242Z,99.90
2022-08-18T04:52:36.296Z,99.90
2022-08-18T04:54:16.473Z,99.90
2022-08-18T04:56:43.418Z,99.90
2022-08-18T04:59:12.535Z,99.90
2022-08-18T05:01:45.715Z,99.90
2022-08-18T05:04:14.342Z,99.90
2022-08-18T05:06:43.248Z,99.90
2022-08-18T05:09:11.410Z,99.90
2022-08-18T05:11:39.078Z,99.90
2022-08-18T05:14:08.483Z,99.90
2022-08-18T05:16:48.221Z,99.90
2022-08-18T05:19:21.976Z,99.90
2022-08-18T05:21:51.568Z,99.90
2022-08-18T05:24:20.296Z,99.90
2022-08-18T05:26:51.203Z,99.90
2022-08-18T05:29:19.869Z,99.90
2022-08-18T05:31:48.228Z,99.90
2022-08-18T05:34:16.192Z,99.90
2022-08-18T05:36:49.059Z,99.90
2022-08-18T05:39:18.941Z,99.90
2022-08-18T05:41:48.959Z,99.90
2022-08-18T05:44:21.931Z,99.90
2022-08-18T05:46:55.415Z,99.90
2022-08-18T05:49:24.293Z,99.90
2022-08-18T05:52:05.028Z,99.90
2022-08-18T05:55:00.103Z,99.90
2022-08-18T05:57:30.681Z,99.90
2022-08-18T05:59:58.090Z,99.90
2022-08-18T06:02:42.155Z,99.90
2022-08-18T06:05:31.929Z,99.90
2022-08-18T06:08:13.741Z,99.90
2022-08-18T06:10:46.282Z,99.90
2022-08-18T06:13:13.539Z,99.90
2022-08-18T06:15:58.628Z,99.90
2022-08-18T06:18:50.184Z,99.90
2022-08-18T06:21:39.374Z,99.90
2022-08-18T06:24:32.107Z,99.90
2022-08-18T06:27:09.045Z,99.90
2022-08-18T06:29:47.850Z,99.90
2022-08-18T06:32:34.205Z,99.90
2022-08-18T06:35:18.198Z,99.90
2022-08-18T06:38:22.599Z,99.90
2022-08-18T06:40:49.998Z,99.90
2022-08-18T06:43:17.398Z,99.90
2022-08-18T06:45:51.230Z,99.90
2022-08-18T06:48:27.160Z,99.90
2022-08-18T06:50:58.600Z,99.90
2022-08-18T06:53:56.484Z,99.90
2022-08-18T06:56:43.368Z,99.90
2022-08-18T06:59:29.111Z,99.90
2022-08-18T07:02:16.938Z,99.90
2022-08-18T07:04:58.143Z,99.90
2022-08-18T07:07:40.215Z,99.90
2022-08-18T07:10:17.583Z,99.90
2022-08-18T07:12:44.229Z,99.90
2022-08-18T07:15:13.306Z,99.90
2022-08-18T07:17:53.092Z,99.90
2022-08-18T07:20:23.622Z,99.90
2022-08-18T07:23:07.919Z,99.90
2022-08-18T07:25:42.675Z,99.90
2022-08-18T07:28:33.237Z,99.90
2022-08-18T07:31:35.046Z,99.90
2022-08-18T07:34:08.347Z,99.90
2022-08-18T07:36:47.563Z,99.90
2022-08-18T07:39:21.433Z,99.90
2022-08-18T07:42:11.127Z,99.90
2022-08-18T07:45:04.232Z,99.90
2022-08-18T07:47:54.882Z,99.90
2022-08-18T07:50:55.192Z,99.90
2022-08-18T07:53:37.358Z,99.90
2022-08-18T07:56:22.619Z,99.90
2022-08-18T07:58:58.467Z,99.90
2022-08-18T08:01:34.358Z,99.90
2022-08-18T08:04:26.184Z,99.90
2022-08-18T08:07:26.220Z,99.90
2022-08-18T08:10:04.661Z,99.90
2022-08-18T08:13:08.452Z,99.90
2022-08-18T08:15:42.351Z,99.90
2022-08-18T08:18:28.774Z,99.90
2022-08-18T08:21:00.368Z,99.90
2022-08-18T08:23:27.396Z,99.90
2022-08-18T08:26:15.054Z,99.90
2022-08-18T08:28:57.049Z,99.90
2022-08-18T08:32:00.823Z,99.90
2022-08-18T08:34:54.402Z,99.90
2022-08-18T08:37:46.830Z,99.90
2022-08-18T08:40:21.775Z,99.90
2022-08-18T08:42:57.647Z,99.90
2022-08-18T08:45:32.184Z,99.90
2022-08-18T08:48:09.480Z,99.90
2022-08-18T08:51:03.453Z,99.90
2022-08-18T08:53:35.160Z,99.90
2022-08-18T08:56:07.985Z,99.90
2022-08-18T08:58:40.290Z,99.90
2022-08-18T09:01:27.553Z,99.90
2022-08-18T09:04:04.433Z,99.90
2022-08-18T09:07:08.335Z,99.90
2022-08-18T09:10:01.942Z,99.90
2022-08-18T09:12:46.360Z,99.90
2022-08-18T09:15:51.800Z,99.90
2022-08-18T09:18:30.804Z,99.90
2022-08-18T09:21:15.913Z,99.90
2022-08-18T09:23:46.898Z,99.90
2022-08-18T09:26:45.074Z,99.90
2022-08-18T09:29:45.783Z,99.90
2022-08-18T09:32:18.529Z,99.90
2022-08-18T09:34:56.404Z,99.90
2022-08-18T09:37:34.074Z,99.90
2022-08-18T09:41:01.119Z,99.90
2022-08-18T09:43:36.761Z,99.90
2022-08-18T09:46:05.930Z,99.90
2022-08-18T09:48:34.286Z,99.90
2022-08-18T09:51:17.698Z,99.90
2022-08-18T09:53:52.479Z,99.90
2022-08-18T09:56:54.358Z,99.90
2022-08-18T09:59:34.769Z,99.90
2022-08-18T10:02:20.162Z,99.90
2022-08-18T10:05:19.815Z,99.90
2022-08-18T10:07:53.181Z,99.90
2022-08-18T10:14:05.248Z,99.90
2022-08-18T10:20:26.712Z,99.50
2022-08-18T10:22:56.338Z,98.80
2022-08-18T10:25:42.995Z,99.70
2022-08-18T10:28:31.273Z,99.70
2022-08-18T10:31:06.406Z,99.20
2022-08-18T10:36:59.911Z,97.80
2022-08-18T10:39:39.771Z,97.30
2022-08-18T10:42:17.833Z,95.30
2022-08-18T10:44:47.594Z,95.80
2022-08-18T10:47:33.207Z,96.00
2022-08-18T10:50:05.107Z,96.30
2022-08-18T10:53:33.165Z,96.10
2022-08-18T10:56:01.206Z,95.50
2022-08-18T10:58:40.521Z,96.00
2022-08-18T11:01:14.409Z,95.90
2022-08-18T11:03:51.164Z,95.80
2022-08-18T11:06:23.427Z,93.90
2022-08-18T11:08:55.213Z,93.70
2022-08-18T11:11:34.726Z,93.40
2022-08-18T11:14:26.468Z,93.60
2022-08-18T11:17:15.984Z,93.20
2022-08-18T11:19:45.051Z,93.10
2022-08-18T11:22:31.556Z,93.20
2022-08-18T11:25:00.749Z,92.00
2022-08-18T11:27:35.579Z,92.40
2022-08-18T11:30:05.552Z,92.10
2022-08-18T11:32:39.386Z,90.60
2022-08-18T11:35:23.947Z,90.60
2022-08-18T11:38:12.413Z,91.40
2022-08-18T11:43:41.822Z,90.40
2022-08-18T11:46:29.615Z,88.70
2022-08-18T11:48:59.986Z,88.20
2022-08-18T11:51:33.248Z,88.60
2022-08-18T11:54:24.737Z,88.40
2022-08-18T11:56:51.898Z,88.60
2022-08-18T11:59:52.480Z,88.20
2022-08-18T12:02:20.843Z,87.60
2022-08-18T12:04:53.017Z,87.60
2022-08-18T12:07:57.198Z,88.10
2022-08-18T12:10:28.063Z,87.70
2022-08-18T12:12:57.493Z,87.80
2022-08-18T12:15:43.829Z,87.30
2022-08-18T12:18:26.484Z,86.90
2022-08-18T12:20:58.222Z,86.90
2022-08-18T12:23:25.206Z,86.40
2022-08-18T12:25:52.107Z,86.70
2022-08-18T12:28:22.407Z,86.80
2022-08-18T12:30:56.636Z,86.70
2022-08-18T12:33:25.143Z,86.00
2022-08-18T12:35:52.582Z,85.50
2022-08-18T12:38:19.323Z,85.40
2022-08-18T12:40:46.067Z,85.10
2022-08-18T12:43:13.006Z,84.50
2022-08-18T12:45:40.362Z,83.50
2022-08-18T12:48:08.788Z,84.50
2022-08-18T12:50:49.603Z,84.00
2022-08-18T12:56:21.523Z,82.20
2022-08-18T12:58:49.715Z,83.70
2022-08-18T13:01:20.205Z,83.80
2022-08-18T13:04:03.660Z,82.70
2022-08-18T13:06:41.273Z,82.40
2022-08-18T13:09:35.306Z,83.70
2022-08-18T13:12:14.787Z,84.60
2022-08-18T13:14:43.487Z,83.80
2022-08-18T13:17:15.257Z,83.50
2022-08-18T13:19:57.270Z,84.50
2022-08-18T13:22:32.783Z,83.90
2022-08-18T13:25:06.926Z,84.00
2022-08-18T13:27:36.104Z,84.10
2022-08-18T13:30:29.590Z,83.10
2022-08-18T13:33:00.688Z,82.00
2022-08-18T13:35:38.008Z,81.60
2022-08-18T13:38:17.132Z,82.10
2022-08-18T13:40:48.506Z,82.70
2022-08-18T13:43:17.889Z,82.70
2022-08-18T13:45:46.981Z,82.90
2022-08-18T13:48:20.050Z,82.40
2022-08-18T13:50:52.743Z,82.50
2022-08-18T13:53:21.152Z,82.30
2022-08-18T13:55:48.506Z,81.60
2022-08-18T13:58:20.529Z,82.00
2022-08-18T14:00:52.186Z,82.20
2022-08-18T14:03:42.716Z,82.50
2022-08-18T14:06:13.037Z,81.80
2022-08-18T14:08:40.396Z,81.50
2022-08-18T14:11:07.446Z,82.40
2022-08-18T14:13:38.089Z,82.50
2022-08-18T14:16:18.731Z,83.00
2022-08-18T14:19:17.624Z,83.40
2022-08-18T14:22:06.983Z,81.90
2022-08-18T14:24:57.914Z,80.80
2022-08-18T14:27:35.026Z,81.50
2022-08-18T14:30:12.146Z,81.50
2022-08-18T14:32:48.722Z,81.50
2022-08-18T14:36:03.731Z,81.80
2022-08-18T14:38:05.035Z,81.60
2022-08-18T14:40:33.297Z,81.90
2022-08-18T14:43:01.855Z,81.90
2022-08-18T14:45:34.418Z,82.10
2022-08-18T14:48:07.289Z,82.50
2022-08-18T14:50:38.814Z,82.30
2022-08-18T14:53:06.417Z,81.50
2022-08-18T14:55:34.214Z,81.50
2022-08-18T14:58:01.399Z,82.10
2022-08-18T15:00:30.141Z,82.30
2022-08-18T15:02:59.488Z,81.50
2022-08-18T15:05:27.133Z,81.80
2022-08-18T15:07:54.028Z,81.80
2022-08-18T15:10:23.733Z,81.70
2022-08-18T15:12:55.337Z,81.90
2022-08-18T15:15:22.558Z,81.70
2022-08-18T15:17:52.642Z,81.90
2022-08-18T15:20:29.706Z,81.60
2022-08-18T15:23:24.683Z,81.70
2022-08-18T15:25:51.977Z,81.40
2022-08-18T15:28:21.499Z,82.10
2022-08-18T15:31:16.609Z,82.20
2022-08-18T15:33:38.858Z,81.90
2022-08-18T15:36:05.703Z,82.10
2022-08-18T15:38:36.811Z,81.70
2022-08-18T15:41:06.354Z,81.90
2022-08-18T15:43:37.021Z,81.90
2022-08-18T15:46:14.027Z,82.10
2022-08-18T15:48:43.675Z,81.70
2022-08-18T15:51:12.037Z,82.20
2022-08-18T15:53:45.009Z,82.20
2022-08-18T15:56:31.912Z,82.10
2022-08-18T15:59:04.153Z,83.10
2022-08-18T16:01:32.204Z,82.90
2022-08-18T16:04:00.419Z,83.60
2022-08-18T16:06:32.282Z,83.20
2022-08-18T16:09:01.014Z,83.00
2022-08-18T16:11:28.966Z,83.50
2022-08-18T16:13:58.651Z,82.70
2022-08-18T16:16:29.736Z,82.70
2022-08-18T16:19:06.078Z,81.90
2022-08-18T16:21:33.554Z,81.10
2022-08-18T16:24:00.180Z,79.90
2022-08-18T16:26:26.845Z,80.20
2022-08-18T16:28:53.589Z,80.70
2022-08-18T16:31:26.021Z,80.00
2022-08-18T16:33:53.765Z,80.30
2022-08-18T16:36:22.121Z,80.40
2022-08-18T16:38:48.762Z,80.50
2022-08-18T16:41:20.770Z,80.70
2022-08-18T16:43:47.828Z,80.20
2022-08-18T16:46:21.528Z,80.70
2022-08-18T16:48:49.445Z,81.20
2022-08-18T16:51:19.189Z,81.30
2022-08-18T16:53:47.319Z,81.50
2022-08-18T16:56:16.904Z,80.70
2022-08-18T16:59:02.061Z,80.60
2022-08-18T17:01:49.033Z,80.40
2022-08-18T17:04:24.034Z,80.60
2022-08-18T17:06:51.044Z,80.60
2022-08-18T17:09:19.433Z,80.20
2022-08-18T17:11:51.567Z,79.90
2022-08-18T17:14:20.642Z,80.30
2022-08-18T17:16:49.364Z,79.70
2022-08-18T17:19:16.044Z,79.70
2022-08-18T17:21:43.009Z,79.90
2022-08-18T17:24:10.580Z,80.10
2022-08-18T17:26:59.511Z,80.20
2022-08-18T17:29:46.000Z,80.20
2022-08-18T17:32:21.507Z,80.70
2022-08-18T17:34:53.954Z,80.70
2022-08-18T17:37:23.953Z,80.80
2022-08-18T17:40:15.383Z,80.40
2022-08-18T17:42:42.052Z,80.90
2022-08-18T17:45:13.654Z,81.10
2022-08-18T17:47:54.901Z,81.40
2022-08-18T17:50:45.826Z,81.20
2022-08-18T17:53:13.548Z,80.70
2022-08-18T17:55:47.145Z,82.00
2022-08-18T17:58:31.062Z,80.80
2022-08-18T18:00:57.762Z,81.40
2022-08-18T18:03:24.434Z,81.20
2022-08-18T18:05:57.839Z,81.70
2022-08-18T18:08:53.970Z,82.00
2022-08-18T18:11:31.214Z,81.90
2022-08-18T18:14:18.849Z,82.10
2022-08-18T18:17:00.270Z,82.50
2022-08-18T18:19:30.737Z,83.10
2022-08-18T18:22:24.925Z,83.20
2022-08-18T18:25:07.502Z,83.60
2022-08-18T18:27:39.817Z,83.70
2022-08-18T18:30:27.686Z,84.30
2022-08-18T18:33:02.966Z,84.50
2022-08-18T18:35:54.925Z,84.20
2022-08-18T18:38:35.073Z,84.40
2022-08-18T18:41:06.706Z,84.40
2022-08-18T18:43:33.312Z,84.20
2022-08-18T18:46:22.815Z,84.90
2022-08-18T18:49:11.001Z,84.10
2022-08-18T18:51:56.557Z,84.20
2022-08-18T18:54:42.550Z,85.10
2022-08-18T18:57:37.869Z,85.20
2022-08-18T19:00:23.079Z,86.40
2022-08-18T19:03:31.442Z,87.20
2022-08-18T19:06:19.992Z,87.30
2022-08-18T19:08:59.470Z,87.70
2022-08-18T19:11:46.010Z,87.90
2022-08-18T19:14:26.364Z,88.20
2022-08-18T19:17:02.347Z,87.90
2022-08-18T19:19:39.346Z,88.20
2022-08-18T19:22:20.814Z,88.30
2022-08-18T19:25:04.058Z,87.80
2022-08-18T19:27:39.976Z,87.80
2022-08-18T19:30:12.446Z,88.00
2022-08-18T19:32:46.489Z,88.40
2022-08-18T19:35:19.850Z,88.60
2022-08-18T19:38:04.516Z,89.40
2022-08-18T19:40:49.262Z,89.70
2022-08-18T19:43:42.758Z,90.10
2022-08-18T19:46:51.885Z,90.10
2022-08-18T19:49:21.829Z,90.00
2022-08-18T19:51:52.301Z,90.00
2022-08-18T19:54:18.901Z,89.80
2022-08-18T19:57:03.462Z,89.80
2022-08-18T20:00:25.259Z,89.80
2022-08-18T20:03:21.187Z,89.50
2022-08-18T20:06:13.268Z,90.00
2022-08-18T20:09:03.117Z,90.40
2022-08-18T20:11:52.402Z,91.00
2022-08-18T20:14:20.323Z,91.20
2022-08-18T20:17:12.736Z,91.20
2022-08-18T20:19:47.661Z,91.00
2022-08-18T20:22:24.568Z,91.50
2022-08-18T20:25:32.731Z,91.50
2022-08-18T20:27:59.419Z,91.70
2022-08-18T20:30:33.871Z,91.70
2022-08-18T20:33:07.419Z,92.00
2022-08-18T20:35:59.258Z,92.60
2022-08-18T20:38:47.011Z,92.60
2022-08-18T20:41:29.974Z,92.50
2022-08-18T20:44:36.491Z,92.60
2022-08-18T20:47:36.513Z,92.60
2022-08-18T20:50:34.110Z,92.60
2022-08-18T20:53:39.702Z,92.30
2022-08-18T20:56:32.584Z,92.40
2022-08-18T20:59:21.137Z,92.80
2022-08-18T21:02:08.107Z,93.20
2022-08-18T21:04:45.449Z,92.90
2022-08-18T21:07:36.207Z,93.10
2022-08-18T21:10:24.679Z,93.00
2022-08-18T21:12:57.769Z,93.40
2022-08-18T21:15:36.905Z,93.80
2022-08-18T21:18:18.771Z,93.40
2022-08-18T21:20:51.134Z,93.30
2022-08-18T21:23:25.836Z,93.50
2022-08-18T21:25:57.819Z,93.80
2022-08-18T21:28:28.166Z,93.90
2022-08-18T21:31:29.089Z,94.10
2022-08-18T21:33:51.001Z,94.20
2022-08-18T21:36:20.101Z,94.20
2022-08-18T21:39:03.414Z,94.50
2022-08-18T21:41:39.104Z,94.70
2022-08-18T21:44:21.203Z,94.70
2022-08-18T21:46:48.811Z,94.80
2022-08-18T21:49:28.194Z,95.00
2022-08-18T21:51:54.912Z,95.20
2022-08-18T21:54:25.791Z,95.20
2022-08-18T21:57:22.365Z,95.10
2022-08-18T22:00:18.339Z,95.20
2022-08-18T22:02:47.034Z,95.40
2022-08-18T22:05:26.785Z,95.50
2022-08-18T22:07:53.597Z,95.60
2022-08-18T22:10:51.056Z,95.70
2022-08-18T22:13:40.387Z,96.00
2022-08-18T22:16:24.531Z,96.40
2022-08-18T22:18:51.658Z,96.80
2022-08-18T22:21:41.033Z,96.70
2022-08-18T22:24:20.216Z,96.50
2022-08-18T22:27:26.280Z,96.40
2022-08-18T22:30:03.625Z,96.20
2022-08-18T22:32:32.917Z,96.30
2022-08-18T22:34:59.838Z,96.30
2022-08-18T22:37:32.430Z,96.40
2022-08-18T22:40:10.100Z,96.20
2022-08-18T22:42:37.667Z,96.20
2022-08-18T22:45:13.262Z,96.20
2022-08-18T22:47:43.135Z,96.00
2022-08-18T22:50:12.247Z,96.00
2022-08-18T22:52:48.190Z,96.20
2022-08-18T22:55:20.250Z,96.20
2022-08-18T22:57:50.963Z,96.00
2022-08-18T23:00:22.988Z,96.10
2022-08-18T23:02:50.795Z,96.00
2022-08-18T23:05:18.082Z,96.10
2022-08-18T23:07:45.962Z,96.00
2022-08-18T23:10:14.066Z,96.10
2022-08-18T23:12:42.985Z,96.20
2022-08-18T23:15:13.156Z,96.20
2022-08-18T23:17:43.435Z,96.40
2022-08-18T23:20:17.554Z,96.50
2022-08-18T23:22:45.444Z,96.80
2022-08-18T23:25:13.192Z,96.90
2022-08-18T23:27:40.873Z,97.00
2022-08-18T23:30:08.311Z,97.10
2022-08-18T23:32:34.974Z,97.10
2022-08-18T23:35:02.275Z,97.30
2022-08-18T23:37:28.940Z,97.50
2022-08-18T23:39:55.872Z,97.50
2022-08-18T23:42:23.130Z,97.50
2022-08-18T23:44:50.142Z,97.60
2022-08-18T23:47:19.404Z,97.40
2022-08-18T23:49:46.481Z,97.60
2022-08-18T23:52:13.130Z,97.70
2022-08-18T23:54:39.789Z,97.70
2022-08-18T23:57:06.466Z,97.70
2022-08-18T23:59:33.219Z,97.60
